Time;durP1;ratioP1;P1;durP2;ratioP2;P2;SDS_P1;SDS_P2;PMS_P1;PMS_P2;Temp;Humidity;BMP_temperature;BMP_pressure;BME280_temperature;BME280_humidity;BME280_pressure;Samples;Min_cycle;Max_cycle;Signal;HPM_P1;HPM_P2
2022/02/01 00:03:32;;;;;;;1.40;1.30;;;;;;;;;;10328128;28;20052;-75
2022/02/01 00:08:42;;;;;;;1.10;0.73;;;;;;;;;;10323833;28;20627;-74
2022/02/01 00:13:55;;;;;;;2.63;1.10;;;;;;;;;;10324993;28;20117;-74
2022/02/01 00:35:25;;;;;;;0.80;0.60;;;;;;;;;;10320269;28;20107;-75
2022/02/01 00:40:28;;;;;;;0.40;0.30;;;;;;;;;;10327653;28;20038;-75
2022/02/01 00:45:30;;;;;;;1.87;1.40;;;;;;;;;;10323122;28;20482;-75
2022/02/01 00:50:35;;;;;;;1.30;1.10;;;;;;;;;;10330121;28;20073;-75
2022/02/01 00:55:38;;;;;;;0.30;0.30;;;;;;;;;;10321136;28;20062;-74
2022/02/01 01:00:41;;;;;;;1.03;0.93;;;;;;;;;;10326633;28;20095;-74
2022/02/01 01:05:47;;;;;;;0.73;0.63;;;;;;;;;;10324044;28;20038;-74
2022/02/01 01:10:49;;;;;;;;;;;;;;;;;;10326027;28;20043;-73
2022/02/01 01:15:59;;;;;;;0.50;0.50;;;;;;;;;;10320986;28;20283;-73
2022/02/01 01:53:29;;;;;;;0.70;0.70;;;;;;;;;;10184768;29;20099;-75
2022/02/01 01:58:33;;;;;;;2.33;1.30;;;;;;;;;;10271350;28;20462;-74
2022/02/01 02:03:36;;;;;;;2.83;1.70;;;;;;;;;;10320959;28;20046;-75
2022/02/01 02:08:42;;;;;;;1.33;0.87;;;;;;;;;;10320729;28;20034;-75
2022/02/01 02:19:14;;;;;;;3.50;1.50;;;;;;;;;;10321768;28;20034;-75
2022/02/01 02:24:32;;;;;;;2.90;1.83;;;;;;;;;;10318903;28;20045;-74
2022/02/01 02:29:36;;;;;;;3.07;1.23;;;;;;;;;;10319065;28;20104;-74
2022/02/01 02:34:39;;;;;;;3.77;2.10;;;;;;;;;;10320552;28;20506;-75
2022/02/01 02:39:58;;;;;;;2.27;1.13;;;;;;;;;;10324323;28;20031;-74
2022/02/01 02:45:09;;;;;;;3.20;1.83;;;;;;;;;;10314344;28;20124;-74
2022/02/01 02:50:13;;;;;;;2.43;1.60;;;;;;;;;;10317028;28;20414;-74
2022/02/01 02:55:18;;;;;;;2.47;1.40;;;;;;;;;;10319801;28;20457;-74
2022/02/01 03:00:21;;;;;;;5.20;2.77;;;;;;;;;;10322006;28;20110;-73
2022/02/01 03:05:24;;;;;;;5.63;1.77;;;;;;;;;;10317498;28;20112;-73
2022/02/01 03:10:29;;;;;;;1.70;0.90;;;;;;;;;;10320389;28;20448;-74
2022/02/01 03:15:41;;;;;;;;;;;;;;;;;;10318165;28;20031;-74
2022/02/01 03:20:44;;;;;;;4.13;1.73;;;;;;;;;;10319144;28;19929;-76
2022/02/01 03:25:49;;;;;;;3.70;1.63;;;;;;;;;;10339502;22;20070;-73
2022/02/01 03:30:52;;;;;;;5.40;1.87;;;;;;;;;;10388673;28;20030;-75
2022/02/01 03:35:55;;;;;;;3.77;1.57;;;;;;;;;;10389561;28;20033;-74
2022/02/01 03:40:59;;;;;;;4.43;2.00;;;;;;;;;;10395202;28;20500;-75
2022/02/01 03:46:02;;;;;;;;;;;;;;;;;;10404121;28;20071;-76
2022/02/01 03:51:05;;;;;;;0.70;0.70;;;;;;;;;;10394096;28;20001;-75
2022/02/01 03:56:09;;;;;;;2.13;0.90;;;;;;;;;;10392557;28;20099;-74
2022/02/01 04:01:13;;;;;;;6.20;2.67;;;;;;;;;;10401211;28;20045;-76
2022/02/01 04:06:20;;;;;;;6.73;1.90;;;;;;;;;;10396251;28;20449;-76
2022/02/01 04:11:25;;;;;;;7.67;2.30;;;;;;;;;;10397205;28;20044;-74
2022/02/01 04:16:28;;;;;;;5.23;2.67;;;;;;;;;;10395825;28;20494;-78
2022/02/01 04:21:32;;;;;;;3.20;1.85;;;;;;;;;;10402388;28;20068;-75
2022/02/01 04:26:37;;;;;;;6.28;3.20;;;;;;;;;;10399921;28;20135;-76
2022/02/01 04:31:40;;;;;;;7.67;3.00;;;;;;;;;;10404373;28;20822;-75
2022/02/01 04:36:43;;;;;;;7.33;3.53;;;;;;;;;;10397263;28;20040;-75
2022/02/01 04:41:49;;;;;;;3.05;1.38;;;;;;;;;;10398987;28;20279;-75
2022/02/01 04:46:51;;;;;;;3.17;1.50;;;;;;;;;;10398700;28;20030;-77
2022/02/01 04:51:54;;;;;;;4.87;2.20;;;;;;;;;;10394552;28;20049;-76
2022/02/01 04:56:59;;;;;;;2.07;1.17;;;;;;;;;;10392818;28;20042;-75
2022/02/01 05:02:01;;;;;;;;;;;;;;;;;;10400532;28;20045;-76
2022/02/01 05:07:05;;;;;;;2.90;1.57;;;;;;;;;;10400012;28;19925;-76
2022/02/01 05:12:10;;;;;;;2.55;1.98;;;;;;;;;;10397524;28;20106;-74
2022/02/01 05:17:15;;;;;;;3.10;1.53;;;;;;;;;;10396465;28;20049;-75
2022/02/01 05:22:20;;;;;;;6.20;2.77;;;;;;;;;;10392813;28;20239;-75
2022/02/01 05:27:27;;;;;;;;;;;;;;;;;;10401504;28;20105;-77
2022/02/01 05:32:31;;;;;;;5.47;1.70;;;;;;;;;;10402486;28;19968;-76
2022/02/01 05:37:34;;;;;;;2.30;1.03;;;;;;;;;;10398070;28;20478;-75
2022/02/01 05:42:44;;;;;;;2.05;0.88;;;;;;;;;;10407093;28;20471;-74
2022/02/01 05:47:48;;;;;;;5.90;2.47;;;;;;;;;;10399969;28;20034;-75
2022/02/01 05:52:51;;;;;;;3.90;1.23;;;;;;;;;;10403640;28;20498;-73
2022/02/01 05:57:54;;;;;;;2.57;1.93;;;;;;;;;;10397234;28;20038;-75
2022/02/01 06:02:59;;;;;;;5.57;2.73;;;;;;;;;;10401704;28;20053;-76
2022/02/01 06:08:04;;;;;;;5.03;1.80;;;;;;;;;;10401392;28;20493;-75
2022/02/01 06:13:07;;;;;;;1.90;1.20;;;;;;;;;;10401047;28;20041;-75
2022/02/01 06:18:11;;;;;;;4.77;2.57;;;;;;;;;;10398347;28;20064;-74
2022/02/01 06:23:15;;;;;;;4.40;2.47;;;;;;;;;;10414223;28;21304;-74
2022/02/01 06:28:18;;;;;;;3.50;2.10;;;;;;;;;;10405327;28;20509;-73
2022/02/01 06:33:23;;;;;;;4.93;1.65;;;;;;;;;;10397918;28;20072;-74
2022/02/01 06:38:25;;;;;;;;;;;;;;;;;;10395288;28;20092;-73
2022/02/01 06:43:28;;;;;;;7.47;2.87;;;;;;;;;;10396243;28;19971;-74
2022/02/01 06:48:33;;;;;;;2.87;1.13;;;;;;;;;;10398203;28;20048;-75
2022/02/01 06:53:43;;;;;;;4.17;2.30;;;;;;;;;;10393765;28;20103;-74
2022/02/01 06:58:47;;;;;;;2.37;1.47;;;;;;;;;;10390667;28;20072;-75
2022/02/01 07:03:52;;;;;;;4.25;2.33;;;;;;;;;;10400031;28;20041;-76
2022/02/01 07:08:54;;;;;;;5.50;3.03;;;;;;;;;;10398536;28;20052;-75
2022/02/01 07:13:57;;;;;;;2.33;1.37;;;;;;;;;;10402792;28;20068;-72
2022/02/01 07:19:01;;;;;;;2.23;1.20;;;;;;;;;;10404711;28;20065;-74
2022/02/01 07:24:12;;;;;;;2.13;1.30;;;;;;;;;;10405623;28;20208;-73
2022/02/01 07:29:16;;;;;;;2.47;1.77;;;;;;;;;;10398254;28;20056;-73
2022/02/01 07:34:20;;;;;;;17.70;2.42;;;;;;;;;;10398686;28;20122;-73
2022/02/01 07:39:22;;;;;;;;;;;;;;;;;;10394065;28;20042;-74
2022/02/01 07:44:25;;;;;;;5.83;2.40;;;;;;;;;;10395975;28;19980;-73
2022/02/01 07:49:30;;;;;;;12.10;4.03;;;;;;;;;;10405310;28;20030;-73
2022/02/01 07:54:32;;;;;;;;;;;;;;;;;;10394399;28;20588;-74
2022/02/01 07:59:35;;;;;;;8.43;2.70;;;;;;;;;;10400015;28;20079;-73
2022/02/01 08:04:40;;;;;;;10.77;2.47;;;;;;;;;;10404687;28;20053;-73
2022/02/01 08:09:47;;;;;;;9.80;3.17;;;;;;;;;;10406941;28;20065;-73
2022/02/01 08:20:24;;;;;;;9.97;2.77;;;;;;;;;;10363683;28;20045;-70
2022/02/01 08:25:27;;;;;;;7.43;1.03;;;;;;;;;;10407789;28;20053;-74
2022/02/01 08:30:31;;;;;;;17.80;3.70;;;;;;;;;;10414776;28;20049;-76
2022/02/01 08:35:36;;;;;;;8.20;2.53;;;;;;;;;;10414799;28;20302;-75
2022/02/01 08:40:54;;;;;;;8.13;2.03;;;;;;;;;;10409504;28;20124;-75
2022/02/01 08:45:57;;;;;;;7.00;2.03;;;;;;;;;;10408212;28;20050;-74
2022/02/01 08:51:07;;;;;;;7.65;1.85;;;;;;;;;;10397141;28;20116;-72
2022/02/01 08:57:20;;;;;;;10.50;1.23;;;;;;;;;;10393906;28;20041;-71
2022/02/01 09:01:58;;;;;;;4.83;1.43;;;;;;;;;;10401449;28;20509;-74
2022/02/01 09:07:03;;;;;;;5.13;1.63;;;;;;;;;;10396602;28;20049;-75
2022/02/01 09:12:07;;;;;;;15.53;2.43;;;;;;;;;;10399456;28;20103;-75
2022/02/01 09:17:14;;;;;;;7.90;1.53;;;;;;;;;;10399404;28;20034;-74
2022/02/01 09:22:23;;;;;;;5.97;1.20;;;;;;;;;;10398966;28;20041;-73
2022/02/01 09:27:26;;;;;;;9.07;2.70;;;;;;;;;;10396668;22;20050;-75
2022/02/01 09:32:29;;;;;;;5.30;1.50;;;;;;;;;;10365924;28;20081;-73
2022/02/01 09:37:43;;;;;;;5.27;1.30;;;;;;;;;;10344888;28;20046;-75
2022/02/01 09:43:06;;;;;;;6.63;1.90;;;;;;;;;;10333269;28;20083;-74
2022/02/01 09:48:09;;;;;;;17.07;2.43;;;;;;;;;;10346024;28;20073;-75
2022/02/01 09:53:14;;;;;;;5.83;1.50;;;;;;;;;;10339193;28;20487;-74
2022/02/01 09:58:17;;;;;;;1.70;0.77;;;;;;;;;;10340362;28;20061;-74
2022/02/01 10:03:22;;;;;;;6.13;1.17;;;;;;;;;;10340663;28;20042;-75
2022/02/01 10:08:27;;;;;;;14.07;3.17;;;;;;;;;;10333635;28;20470;-76
2022/02/01 10:13:35;;;;;;;4.10;1.20;;;;;;;;;;10342581;28;20042;-73
2022/02/01 10:18:39;;;;;;;11.53;1.60;;;;;;;;;;10335605;28;20038;-75
2022/02/01 10:23:44;;;;;;;5.10;1.05;;;;;;;;;;10332552;28;20046;-74
2022/02/01 10:29:04;;;;;;;4.20;1.10;;;;;;;;;;10343175;28;20164;-75
2022/02/01 10:34:29;;;;;;;1.73;0.77;;;;;;;;;;10338854;28;20053;-74
2022/02/01 10:39:34;;;;;;;6.80;1.10;;;;;;;;;;10342074;28;20060;-74
2022/02/01 10:44:39;;;;;;;4.57;0.67;;;;;;;;;;10338278;28;20050;-73
2022/02/01 10:49:42;;;;;;;5.00;1.70;;;;;;;;;;10341023;28;20050;-74
2022/02/01 10:54:47;;;;;;;1.83;0.63;;;;;;;;;;10325619;28;20096;-74
2022/02/01 10:59:52;;;;;;;6.77;1.37;;;;;;;;;;10336176;28;20041;-73
2022/02/01 11:04:57;;;;;;;5.43;1.17;;;;;;;;;;10336719;28;20049;-74
2022/02/01 11:10:01;;;;;;;7.10;1.42;;;;;;;;;;10329069;28;20041;-74
2022/02/01 11:15:05;;;;;;;3.20;1.40;;;;;;;;;;10334464;28;20045;-74
2022/02/01 11:20:09;;;;;;;;;;;;;;;;;;10335625;28;20061;-73
2022/02/01 11:25:25;;;;;;;2.53;1.03;;;;;;;;;;10331071;28;19922;-74
2022/02/01 11:30:34;;;;;;;6.33;1.13;;;;;;;;;;10339785;28;20401;-74
2022/02/01 11:35:38;;;;;;;6.43;1.60;;;;;;;;;;10335933;28;20114;-74
2022/02/01 11:40:48;;;;;;;2.57;0.70;;;;;;;;;;10339444;28;20540;-73
2022/02/01 11:46:20;;;;;;;5.87;1.60;;;;;;;;;;10333279;28;20118;-74
2022/02/01 11:51:26;;;;;;;7.30;1.67;;;;;;;;;;10329735;28;20048;-74
2022/02/01 11:56:37;;;;;;;10.10;1.60;;;;;;;;;;10328988;28;20057;-73
2022/02/01 12:01:40;;;;;;;2.70;1.07;;;;;;;;;;10341162;28;20035;-73
2022/02/01 12:06:46;;;;;;;;;;;;;;;;;;10339700;28;20046;-73
2022/02/01 12:11:54;;;;;;;8.48;1.90;;;;;;;;;;10351332;28;20342;-73
2022/02/01 12:17:00;;;;;;;8.77;1.50;;;;;;;;;;10340830;28;20041;-73
2022/02/01 12:22:08;;;;;;;3.13;1.17;;;;;;;;;;10340436;28;20038;-73
2022/02/01 12:27:12;;;;;;;4.90;1.53;;;;;;;;;;10340880;28;20084;-73
2022/02/01 12:32:15;;;;;;;7.13;1.40;;;;;;;;;;10344690;28;20410;-73
2022/02/01 12:37:21;;;;;;;5.40;2.17;;;;;;;;;;10342050;28;20125;-73
2022/02/01 12:42:33;;;;;;;2.73;1.33;;;;;;;;;;10337779;28;20068;-73
2022/02/01 12:47:36;;;;;;;5.13;1.80;;;;;;;;;;10342924;28;20113;-74
2022/02/01 12:52:48;;;;;;;6.40;1.63;;;;;;;;;;10342477;28;20128;-74
2022/02/01 12:57:52;;;;;;;6.00;2.00;;;;;;;;;;10333747;28;20042;-76
2022/02/01 13:02:54;;;;;;;;;;;;;;;;;;10343165;28;20038;-74
2022/02/01 13:08:11;;;;;;;1.80;0.97;;;;;;;;;;10339020;28;20333;-74
2022/02/01 13:24:01;;;;;;;9.83;2.30;;;;;;;;;;10342148;28;20104;-74
2022/02/01 13:29:07;;;;;;;1.23;0.80;;;;;;;;;;10342554;28;20068;-75
2022/02/01 13:34:13;;;;;;;7.87;1.80;;;;;;;;;;10345838;28;20030;-74
2022/02/01 13:39:24;;;;;;;3.57;1.10;;;;;;;;;;10340964;28;20057;-74
2022/02/01 13:44:30;;;;;;;10.37;1.60;;;;;;;;;;10331208;28;20061;-73
2022/02/01 13:49:33;;;;;;;3.23;1.07;;;;;;;;;;10336310;28;20039;-74
2022/02/01 13:54:52;;;;;;;7.50;2.20;;;;;;;;;;10333284;28;20506;-74
2022/02/01 14:00:04;;;;;;;6.50;1.83;;;;;;;;;;10330059;28;20034;-73
2022/02/01 14:05:18;;;;;;;6.00;1.90;;;;;;;;;;10333989;28;20046;-73
2022/02/01 14:10:30;;;;;;;4.20;1.52;;;;;;;;;;10335510;28;20045;-74
2022/02/01 14:32:16;;;;;;;6.20;1.70;;;;;;;;;;10222798;28;20716;-73
2022/02/01 14:37:25;;;;;;;5.50;1.57;;;;;;;;;;10332059;28;20628;-74
2022/02/01 14:47:56;;;;;;;9.10;1.50;;;;;;;;;;10337662;28;20053;-74
2022/02/01 14:53:00;;;;;;;3.20;1.57;;;;;;;;;;10340375;28;20038;-74
2022/02/01 15:14:21;;;;;;;1.77;0.80;;;;;;;;;;10327948;28;20086;-73
2022/02/01 15:19:26;;;;;;;3.27;0.80;;;;;;;;;;10337551;28;20615;-74
2022/02/01 15:24:28;;;;;;;;;;;;;;;;;;10326768;28;20066;-74
2022/02/01 15:29:31;;;;;;;3.67;1.40;;;;;;;;;;10322467;28;20433;-73
2022/02/01 15:34:36;;;;;;;4.87;1.00;;;;;;;;;;10340307;28;20031;-74
2022/02/01 16:01:01;;;;;;;7.80;0.90;;;;;;;;;;10337794;28;20038;-74
2022/02/01 16:06:06;;;;;;;6.37;1.33;;;;;;;;;;10336140;28;20038;-74
2022/02/01 16:11:12;;;;;;;4.53;0.53;;;;;;;;;;10339364;28;20447;-75
2022/02/01 16:16:21;;;;;;;4.70;1.50;;;;;;;;;;10332911;28;20499;-75
2022/02/01 16:21:26;;;;;;;3.08;1.08;;;;;;;;;;10338293;28;20698;-75
2022/02/01 16:26:30;;;;;;;4.10;1.70;;;;;;;;;;10341136;28;20058;-76
2022/02/01 16:31:34;;;;;;;0.77;0.77;;;;;;;;;;10340647;28;20092;-76
2022/02/01 16:36:40;;;;;;;3.20;1.55;;;;;;;;;;10341582;28;20038;-73
2022/02/01 16:41:44;;;;;;;2.47;1.00;;;;;;;;;;10345626;28;20044;-74
2022/02/01 16:47:04;;;;;;;1.70;0.80;;;;;;;;;;10338925;28;20045;-73
2022/02/01 16:52:18;;;;;;;4.00;0.63;;;;;;;;;;10332693;28;20047;-73
2022/02/01 16:57:27;;;;;;;3.13;0.83;;;;;;;;;;10341770;28;20130;-73
2022/02/01 17:02:30;;;;;;;1.70;0.30;;;;;;;;;;10338186;28;20050;-74
2022/02/01 17:07:34;;;;;;;0.60;0.20;;;;;;;;;;10329548;28;20034;-74
2022/02/01 17:12:44;;;;;;;2.03;0.90;;;;;;;;;;10336404;28;20542;-73
2022/02/01 17:18:01;;;;;;;0.63;0.40;;;;;;;;;;10330227;28;20419;-76
2022/02/01 17:23:07;;;;;;;2.37;0.90;;;;;;;;;;10329087;28;20041;-75
2022/02/01 17:28:10;;;;;;;0.83;0.43;;;;;;;;;;10354823;28;20054;-73
2022/02/01 17:33:13;;;;;;;2.50;0.90;;;;;;;;;;10336010;28;20125;-75
2022/02/01 17:38:17;;;;;;;1.47;1.07;;;;;;;;;;10327661;28;20042;-75
2022/02/01 17:43:20;;;;;;;0.23;0.23;;;;;;;;;;10328916;28;20030;-74
2022/02/01 17:48:23;;;;;;;1.20;0.63;;;;;;;;;;10354654;28;20053;-73
2022/02/01 17:53:39;;;;;;;2.38;1.05;;;;;;;;;;10330492;28;20089;-74
2022/02/01 17:58:42;;;;;;;2.60;0.97;;;;;;;;;;10333843;28;20104;-76
2022/02/01 18:03:45;;;;;;;0.80;0.40;;;;;;;;;;10347132;28;20030;-75
2022/02/01 18:08:53;;;;;;;1.60;0.80;;;;;;;;;;10343322;28;20056;-74
2022/02/01 18:14:17;;;;;;;0.50;0.40;;;;;;;;;;10349787;28;20349;-75
2022/02/01 18:19:21;;;;;;;2.47;1.00;;;;;;;;;;10346770;28;20046;-74
2022/02/01 18:24:25;;;;;;;2.13;0.68;;;;;;;;;;10342237;28;20040;-74
2022/02/01 18:29:28;;;;;;;3.07;0.70;;;;;;;;;;10347150;28;20034;-75
2022/02/01 18:34:32;;;;;;;1.63;0.87;;;;;;;;;;10341888;28;20044;-75
2022/02/01 18:39:39;;;;;;;2.28;0.70;;;;;;;;;;10324930;28;20042;-75
2022/02/01 18:44:43;;;;;;;1.57;0.50;;;;;;;;;;10340770;28;20042;-76
2022/02/01 18:49:57;;;;;;;4.00;1.13;;;;;;;;;;10340565;28;20084;-75
2022/02/01 18:55:18;;;;;;;4.53;1.30;;;;;;;;;;10337097;28;20045;-74
2022/02/01 19:05:51;;;;;;;3.03;1.23;;;;;;;;;;10319251;28;20061;-74
2022/02/01 19:16:20;;;;;;;1.93;1.40;;;;;;;;;;10340966;28;20049;-74
2022/02/01 19:21:23;;;;;;;2.17;1.15;;;;;;;;;;10341755;28;20092;-74
2022/02/01 19:26:29;;;;;;;1.97;1.00;;;;;;;;;;10343946;28;20398;-76
2022/02/01 19:31:33;;;;;;;2.03;0.80;;;;;;;;;;10345942;28;20080;-78
2022/02/01 19:36:39;;;;;;;0.77;0.70;;;;;;;;;;10349463;28;20039;-76
2022/02/01 19:41:45;;;;;;;3.63;1.40;;;;;;;;;;10343647;28;20030;-77
2022/02/01 19:46:57;;;;;;;2.27;1.40;;;;;;;;;;10345577;28;20503;-76
2022/02/01 19:52:01;;;;;;;2.33;1.47;;;;;;;;;;10333630;28;20355;-77
2022/02/01 19:57:06;;;;;;;2.17;1.40;;;;;;;;;;10326910;28;20034;-77
2022/02/01 20:02:09;;;;;;;;;;;;;;;;;;10324674;28;20039;-77
2022/02/01 20:07:14;;;;;;;1.10;0.90;;;;;;;;;;10341360;28;20288;-76
2022/02/01 20:12:20;;;;;;;1.23;0.60;;;;;;;;;;10336038;28;20030;-72
2022/02/01 20:17:25;;;;;;;0.97;0.80;;;;;;;;;;10331494;28;20050;-74
2022/02/01 20:22:29;;;;;;;2.33;1.17;;;;;;;;;;10360939;28;20038;-74
2022/02/01 20:27:35;;;;;;;1.50;1.17;;;;;;;;;;10337094;28;20415;-73
2022/02/01 20:32:41;;;;;;;1.67;0.97;;;;;;;;;;10337998;28;20092;-76
2022/02/01 20:37:45;;;;;;;1.83;1.20;;;;;;;;;;10340812;28;20096;-74
2022/02/01 20:42:52;;;;;;;1.47;0.57;;;;;;;;;;10341173;28;20503;-73
2022/02/01 20:47:57;;;;;;;1.37;0.80;;;;;;;;;;10334572;28;20127;-75
2022/02/01 20:53:00;;;;;;;2.00;0.90;;;;;;;;;;10328267;28;20042;-74
2022/02/01 20:58:05;;;;;;;1.43;1.07;;;;;;;;;;10333120;28;20034;-75
2022/02/01 21:03:08;;;;;;;0.40;0.40;;;;;;;;;;10341336;28;20035;-75
2022/02/01 21:08:11;;;;;;;1.00;0.80;;;;;;;;;;10327462;28;20046;-76
2022/02/01 21:13:18;;;;;;;0.70;0.70;;;;;;;;;;10327771;28;20314;-74
2022/02/01 21:18:21;;;;;;;0.77;0.40;;;;;;;;;;10326433;28;20108;-74
2022/02/01 21:23:24;;;;;;;0.52;0.50;;;;;;;;;;10318392;28;20081;-76
2022/02/01 21:28:29;;;;;;;1.00;0.90;;;;;;;;;;10323295;28;20042;-76
2022/02/01 21:33:32;;;;;;;1.37;0.87;;;;;;;;;;10346247;28;20030;-75
2022/02/01 21:38:36;;;;;;;0.90;0.80;;;;;;;;;;10332183;28;20111;-74
2022/02/01 21:43:41;;;;;;;0.88;0.55;;;;;;;;;;10337794;28;20410;-75
2022/02/01 21:48:45;;;;;;;0.60;0.47;;;;;;;;;;10334795;28;20486;-74
2022/02/01 21:53:48;;;;;;;1.17;0.50;;;;;;;;;;10331264;28;20638;-74
2022/02/01 21:58:53;;;;;;;0.87;0.53;;;;;;;;;;10332982;28;20045;-73
2022/02/01 22:04:00;;;;;;;0.17;0.13;;;;;;;;;;10325383;28;20135;-73
2022/02/01 22:09:03;;;;;;;1.03;0.73;;;;;;;;;;10335280;28;20100;-74
2022/02/01 22:14:10;;;;;;;3.90;0.90;;;;;;;;;;10334073;28;20109;-75
2022/02/01 22:19:13;;;;;;;0.77;0.30;;;;;;;;;;10342252;28;20057;-73
2022/02/01 22:24:17;;;;;;;0.60;0.57;;;;;;;;;;10334193;28;20104;-73
2022/02/01 22:29:22;;;;;;;0.63;0.57;;;;;;;;;;10343288;28;20068;-74
2022/02/01 22:34:26;;;;;;;1.23;0.60;;;;;;;;;;10337694;28;20026;-74
2022/02/01 22:39:29;;;;;;;1.10;0.70;;;;;;;;;;10336159;28;20045;-72
2022/02/01 22:44:34;;;;;;;0.50;0.50;;;;;;;;;;10341442;28;20038;-73
2022/02/01 22:49:38;;;;;;;0.77;0.50;;;;;;;;;;10337544;28;20640;-73
2022/02/01 22:54:44;;;;;;;0.73;0.73;;;;;;;;;;10342175;28;20033;-73
2022/02/01 22:59:49;;;;;;;1.00;0.80;;;;;;;;;;10328573;28;20107;-72
2022/02/01 23:04:52;;;;;;;1.93;1.10;;;;;;;;;;10336534;28;20034;-74
2022/02/01 23:09:59;;;;;;;0.50;0.40;;;;;;;;;;10338378;28;20048;-75
2022/02/01 23:15:27;;;;;;;1.27;1.00;;;;;;;;;;10336621;28;20031;-74
2022/02/01 23:20:30;;;;;;;1.17;0.93;;;;;;;;;;10338097;28;20050;-74
2022/02/01 23:25:33;;;;;;;0.80;0.60;;;;;;;;;;10336587;28;21833;-73
2022/02/01 23:30:38;;;;;;;1.80;1.17;;;;;;;;;;10338960;28;20066;-74
2022/02/01 23:35:55;;;;;;;1.60;1.13;;;;;;;;;;10333389;28;20056;-74
2022/02/01 23:51:36;;;;;;;1.70;1.20;;;;;;;;;;10274298;28;20052;-74
2022/02/01 23:56:43;;;;;;;0.80;0.50;;;;;;;;;;10337092;28;20519;-74
